createdAt,value
2018-03-22T00:00:48.595Z,14.10
2018-03-22T00:03:16.995Z,14.90
2018-03-22T00:05:45.351Z,14.47
2018-03-22T00:08:14.547Z,15.40
2018-03-22T00:10:43.891Z,16.27
2018-03-22T00:13:12.227Z,15.73
2018-03-22T00:15:41.695Z,14.63
2018-03-22T00:18:10.101Z,16.13
2018-03-22T00:20:39.202Z,16.48
2018-03-22T00:23:08.288Z,16.53
2018-03-22T00:25:37.565Z,15.90
2018-03-22T00:28:05.960Z,15.57
2018-03-22T00:30:35.091Z,15.93
2018-03-22T00:33:03.366Z,16.87
2018-03-22T00:35:31.673Z,16.00
2018-03-22T00:37:59.994Z,16.67
2018-03-22T00:40:29.047Z,16.77
2018-03-22T00:42:57.383Z,17.10
2018-03-22T00:45:25.651Z,14.90
2018-03-22T00:47:54.993Z,15.43
2018-03-22T00:50:23.334Z,17.48
2018-03-22T00:52:51.789Z,16.73
2018-03-22T00:55:20.211Z,16.67
2018-03-22T00:57:48.610Z,16.83
2018-03-22T01:00:17.120Z,17.60
2018-03-22T01:02:45.447Z,16.98
2018-03-22T01:05:13.782Z,17.30
2018-03-22T01:07:42.189Z,15.50
2018-03-22T01:10:10.665Z,17.73
2018-03-22T01:12:39.920Z,16.80
2018-03-22T01:15:08.382Z,17.63
2018-03-22T01:17:36.690Z,17.65
2018-03-22T01:20:05.004Z,18.73
2018-03-22T01:22:33.266Z,18.40
2018-03-22T01:25:02.426Z,17.83
2018-03-22T01:27:30.715Z,16.57
2018-03-22T01:29:59.016Z,19.33
2018-03-22T01:32:28.515Z,17.83
2018-03-22T01:34:57.837Z,19.27
2018-03-22T01:37:26.355Z,18.90
2018-03-22T01:39:54.632Z,18.03
2018-03-22T01:42:23.080Z,18.20
2018-03-22T01:44:51.352Z,18.50
2018-03-22T01:47:19.736Z,18.25
2018-03-22T01:49:48.194Z,19.47
2018-03-22T01:52:17.266Z,17.80
2018-03-22T01:54:45.668Z,18.23
2018-03-22T01:57:14.898Z,19.27
2018-03-22T01:59:43.174Z,19.27
2018-03-22T02:02:11.630Z,17.97
2018-03-22T02:04:40.088Z,17.77
2018-03-22T02:07:08.405Z,18.10
2018-03-22T02:09:36.844Z,18.50
2018-03-22T02:12:05.330Z,18.77
2018-03-22T02:14:34.396Z,18.67
2018-03-22T02:17:02.846Z,18.17
2018-03-22T02:19:31.451Z,17.47
2018-03-22T02:21:59.766Z,17.73
2018-03-22T02:24:29.060Z,18.13
2018-03-22T02:26:57.408Z,18.53
2018-03-22T02:29:25.669Z,17.77
2018-03-22T02:31:53.972Z,17.67
2018-03-22T02:34:22.500Z,20.23
2018-03-22T02:36:50.788Z,18.50
2018-03-22T02:39:19.306Z,19.20
2018-03-22T02:41:48.136Z,17.83
2018-03-22T02:44:17.327Z,18.08
2018-03-22T02:46:46.388Z,17.47
2018-03-22T02:49:15.447Z,18.83
2018-03-22T02:51:43.794Z,21.27
2018-03-22T02:54:12.826Z,19.07
2018-03-22T02:56:41.148Z,20.10
2018-03-22T02:59:09.487Z,19.15
2018-03-22T03:01:37.806Z,18.83
2018-03-22T03:04:06.897Z,18.42
2018-03-22T03:06:35.180Z,20.30
2018-03-22T03:09:04.360Z,19.47
2018-03-22T03:11:32.731Z,19.83
2018-03-22T03:14:01.247Z,20.53
2018-03-22T03:16:29.541Z,19.17
2018-03-22T03:18:57.827Z,20.33
2018-03-22T03:21:26.337Z,21.60
2018-03-22T03:23:54.621Z,19.30
2018-03-22T03:26:23.025Z,18.60
2018-03-22T03:28:52.106Z,19.83
2018-03-22T03:31:20.414Z,19.70
2018-03-22T03:33:49.587Z,20.60
2018-03-22T03:36:17.906Z,20.03
2018-03-22T03:38:46.196Z,21.43
2018-03-22T03:41:14.510Z,19.40
2018-03-22T03:43:42.842Z,19.03
2018-03-22T03:46:11.152Z,19.75
2018-03-22T03:48:39.561Z,19.80
2018-03-22T03:51:08.606Z,20.10
2018-03-22T03:53:38.235Z,19.80
2018-03-22T03:56:06.555Z,20.35
2018-03-22T03:58:34.926Z,20.12
2018-03-22T04:01:04.060Z,21.37
2018-03-22T04:03:32.481Z,21.13
2018-03-22T04:06:00.792Z,20.50
2018-03-22T04:08:29.102Z,20.30
2018-03-22T04:10:57.546Z,20.60
2018-03-22T04:13:25.833Z,20.90
2018-03-22T04:15:54.214Z,20.83
2018-03-22T04:18:22.812Z,20.73
2018-03-22T04:20:51.101Z,20.60
2018-03-22T04:23:19.461Z,21.58
2018-03-22T04:25:47.725Z,19.62
2018-03-22T04:28:16.083Z,21.20
2018-03-22T04:30:45.125Z,19.70
2018-03-22T04:33:13.553Z,21.27
2018-03-22T04:35:42.623Z,20.70
2018-03-22T04:38:10.990Z,22.10
2018-03-22T04:40:39.295Z,20.60
2018-03-22T04:43:08.346Z,21.03
2018-03-22T04:45:36.656Z,21.02
2018-03-22T04:48:04.977Z,22.50
2018-03-22T04:50:33.522Z,20.93
2018-03-22T04:53:02.590Z,21.13
2018-03-22T04:55:30.943Z,21.23
2018-03-22T04:57:59.322Z,22.80
2018-03-22T05:00:27.740Z,22.33
2018-03-22T05:02:56.068Z,21.70
2018-03-22T05:05:24.350Z,20.37
2018-03-22T05:07:52.656Z,21.50
2018-03-22T05:10:21.157Z,21.90
2018-03-22T05:12:50.356Z,21.90
2018-03-22T05:15:19.447Z,22.30
2018-03-22T05:17:48.542Z,23.67
2018-03-22T05:20:16.862Z,22.33
2018-03-22T05:22:45.206Z,22.92
2018-03-22T05:25:14.357Z,23.23
2018-03-22T05:27:42.668Z,22.73
2018-03-22T05:30:10.947Z,23.63
2018-03-22T05:32:40.100Z,24.03
2018-03-22T05:35:08.552Z,22.43
2018-03-22T05:37:37.016Z,24.60
2018-03-22T05:40:06.098Z,25.33
2018-03-22T05:42:35.166Z,24.70
2018-03-22T05:45:03.697Z,24.67
2018-03-22T05:47:32.215Z,26.40
2018-03-22T05:50:00.642Z,24.13
2018-03-22T05:52:29.695Z,25.30
2018-03-22T05:54:58.021Z,28.00
2018-03-22T05:57:27.151Z,25.73
2018-03-22T05:59:57.543Z,25.23
2018-03-22T06:02:27.816Z,24.83
2018-03-22T06:04:56.176Z,25.97
2018-03-22T06:07:24.473Z,25.13
2018-03-22T06:09:52.968Z,24.97
2018-03-22T06:12:21.501Z,25.17
2018-03-22T06:14:49.788Z,25.17
2018-03-22T06:17:18.238Z,26.37
2018-03-22T06:19:47.321Z,25.87
2018-03-22T06:22:16.403Z,25.60
2018-03-22T06:24:44.755Z,25.90
2018-03-22T06:27:13.185Z,26.52
2018-03-22T06:29:42.362Z,27.27
2018-03-22T06:32:10.707Z,27.90
2018-03-22T06:34:38.962Z,28.65
2018-03-22T06:37:07.300Z,28.27
2018-03-22T06:39:36.356Z,27.90
2018-03-22T06:42:04.622Z,25.33
2018-03-22T06:44:33.648Z,27.57
2018-03-22T06:47:02.046Z,28.40
2018-03-22T06:49:31.351Z,26.30
2018-03-22T06:51:59.592Z,26.80
2018-03-22T06:54:27.992Z,26.13
2018-03-22T06:56:57.077Z,26.77
2018-03-22T06:59:26.227Z,25.60
2018-03-22T07:01:54.687Z,24.63
2018-03-22T07:04:23.099Z,25.23
2018-03-22T07:06:51.733Z,23.67
2018-03-22T07:09:21.127Z,25.02
2018-03-22T07:11:49.497Z,24.87
2018-03-22T07:14:17.821Z,23.40
2018-03-22T07:16:46.315Z,23.47
2018-03-22T07:19:14.917Z,23.47
2018-03-22T07:21:43.371Z,23.13
2018-03-22T07:24:11.692Z,22.33
2018-03-22T07:26:40.157Z,22.33
2018-03-22T07:29:08.579Z,22.90
2018-03-22T07:31:37.021Z,21.77
2018-03-22T07:34:05.568Z,21.90
2018-03-22T07:36:33.917Z,21.23
2018-03-22T07:39:04.117Z,21.37
2018-03-22T07:41:32.582Z,21.07
2018-03-22T07:44:06.394Z,20.23
2018-03-22T07:46:34.807Z,20.13
2018-03-22T07:49:03.848Z,18.57
2018-03-22T07:51:32.247Z,18.87
2018-03-22T07:54:00.573Z,18.17
2018-03-22T07:56:28.891Z,17.27
2018-03-22T07:58:57.327Z,18.00
2018-03-22T08:01:26.421Z,17.70
2018-03-22T08:03:54.702Z,16.97
2018-03-22T08:06:23.209Z,16.00
2018-03-22T08:08:51.672Z,15.50
2018-03-22T08:11:19.976Z,15.50
2018-03-22T08:13:49.532Z,16.77
2018-03-22T08:16:17.807Z,15.50
2018-03-22T08:18:46.141Z,16.23
2018-03-22T08:21:14.507Z,13.97
2018-03-22T08:23:42.991Z,16.30
2018-03-22T08:26:11.298Z,15.37
2018-03-22T08:28:40.475Z,15.67
2018-03-22T08:31:08.904Z,15.83
2018-03-22T08:33:37.221Z,16.42
2018-03-22T08:36:05.617Z,14.27
2018-03-22T08:38:34.098Z,14.75
2018-03-22T08:41:02.695Z,15.90
2018-03-22T08:43:31.944Z,16.23
2018-03-22T08:46:00.352Z,15.97
2018-03-22T08:48:28.882Z,15.87
2018-03-22T08:50:57.237Z,15.90
2018-03-22T08:53:26.322Z,16.50
2018-03-22T08:55:54.699Z,15.60
2018-03-22T08:58:23.859Z,14.70
2018-03-22T09:00:52.470Z,15.53
2018-03-22T09:03:22.327Z,16.70
2018-03-22T09:05:50.715Z,16.50
2018-03-22T09:08:19.036Z,17.62
2018-03-22T09:10:47.593Z,17.30
2018-03-22T09:13:16.247Z,19.40
2018-03-22T09:15:46.378Z,19.42
2018-03-22T09:18:14.716Z,19.27
2018-03-22T09:20:43.874Z,23.13
2018-03-22T09:23:12.452Z,23.30
2018-03-22T09:25:40.767Z,22.87
2018-03-22T09:28:09.959Z,22.07
2018-03-22T09:30:38.271Z,21.63
2018-03-22T09:33:06.832Z,21.15
2018-03-22T09:35:35.337Z,21.60
2018-03-22T09:38:03.861Z,21.73
2018-03-22T09:40:32.253Z,21.60
2018-03-22T09:43:00.732Z,21.70
2018-03-22T09:45:29.072Z,22.67
2018-03-22T09:47:57.388Z,22.77
2018-03-22T09:50:25.837Z,23.80
2018-03-22T09:52:54.362Z,24.37
2018-03-22T09:55:22.792Z,25.70
2018-03-22T09:57:51.073Z,25.10
2018-03-22T10:00:19.381Z,24.00
2018-03-22T10:02:47.805Z,25.23
2018-03-22T10:05:16.218Z,26.27
2018-03-22T10:07:44.589Z,23.87
2018-03-22T10:10:13.043Z,22.50
2018-03-22T10:12:41.481Z,25.35
2018-03-22T10:15:11.508Z,23.33
2018-03-22T10:17:39.779Z,22.67
2018-03-22T10:20:08.272Z,21.43
2018-03-22T10:22:37.325Z,23.33
2018-03-22T10:25:05.757Z,22.07
2018-03-22T10:27:34.798Z,22.55
2018-03-22T10:30:03.207Z,20.07
2018-03-22T10:32:31.524Z,22.00
2018-03-22T10:34:59.979Z,21.17
2018-03-22T10:37:29.044Z,21.47
2018-03-22T10:39:57.402Z,22.25
2018-03-22T10:42:25.763Z,22.35
2018-03-22T10:44:54.059Z,22.80
2018-03-22T10:47:22.599Z,25.07
2018-03-22T10:49:51.075Z,23.93
2018-03-22T10:52:20.259Z,23.87
2018-03-22T10:54:49.339Z,24.00
2018-03-22T10:57:17.854Z,23.33
2018-03-22T10:59:46.139Z,24.30
2018-03-22T11:02:19.903Z,24.63
2018-03-22T11:04:48.204Z,23.63
2018-03-22T11:07:17.328Z,27.33
2018-03-22T11:09:45.704Z,26.97
2018-03-22T11:12:14.005Z,27.33
2018-03-22T11:14:42.338Z,28.73
2018-03-22T11:17:10.793Z,28.60
2018-03-22T11:19:39.244Z,26.65
2018-03-22T11:22:07.639Z,30.10
2018-03-22T11:24:36.021Z,29.83
2018-03-22T11:27:04.343Z,31.20
2018-03-22T11:29:32.654Z,34.80
2018-03-22T11:32:00.973Z,31.87
2018-03-22T11:34:30.105Z,35.37
2018-03-22T11:36:58.563Z,32.13
2018-03-22T11:39:26.880Z,32.10
2018-03-22T11:41:55.233Z,31.70
2018-03-22T11:44:23.573Z,32.17
2018-03-22T11:46:52.749Z,30.77
2018-03-22T11:49:21.073Z,31.97
2018-03-22T11:51:49.538Z,33.80
2018-03-22T11:54:17.920Z,28.43
2018-03-22T11:56:46.967Z,29.10
2018-03-22T11:59:15.319Z,32.83
2018-03-22T12:01:43.654Z,33.60
2018-03-22T12:04:12.719Z,32.33
2018-03-22T12:06:41.034Z,31.00
2018-03-22T12:09:10.283Z,33.28
2018-03-22T12:11:38.613Z,38.80
2018-03-22T12:14:07.683Z,35.47
2018-03-22T12:16:36.204Z,37.97
2018-03-22T12:19:05.780Z,37.17
2018-03-22T12:21:34.173Z,41.10
2018-03-22T12:24:03.235Z,38.88
2018-03-22T12:26:31.769Z,39.80
2018-03-22T12:29:00.224Z,43.27
2018-03-22T12:31:29.373Z,37.78
2018-03-22T12:33:57.703Z,47.20
2018-03-22T12:36:26.844Z,42.55
2018-03-22T12:38:55.215Z,45.25
2018-03-22T12:41:23.511Z,45.17
2018-03-22T12:43:52.808Z,48.50
2018-03-22T12:46:21.134Z,46.50
2018-03-22T12:48:51.369Z,44.00
2018-03-22T12:51:19.769Z,45.90
2018-03-22T12:53:48.549Z,42.85
2018-03-22T12:56:16.929Z,42.20
2018-03-22T12:58:45.298Z,45.23
2018-03-22T13:01:13.695Z,46.03
2018-03-22T13:03:42.148Z,44.33
2018-03-22T13:06:10.493Z,47.40
2018-03-22T13:08:39.628Z,45.38
2018-03-22T13:11:07.959Z,41.33
2018-03-22T13:13:37.488Z,44.57
2018-03-22T13:16:06.684Z,41.13
2018-03-22T13:18:35.735Z,38.95
2018-03-22T13:21:04.869Z,46.67
2018-03-22T13:23:33.249Z,41.50
2018-03-22T13:26:02.518Z,45.30
2018-03-22T13:28:30.929Z,42.53
2018-03-22T13:30:59.995Z,44.70
2018-03-22T13:33:28.540Z,44.33
2018-03-22T13:35:57.009Z,42.65
2018-03-22T13:38:25.399Z,42.30
2018-03-22T13:40:53.915Z,41.50
2018-03-22T13:43:22.436Z,41.77
2018-03-22T13:45:51.744Z,42.87
2018-03-22T13:48:20.814Z,47.05
2018-03-22T13:50:49.975Z,44.83
2018-03-22T13:53:18.354Z,42.00
2018-03-22T13:55:46.815Z,43.03
2018-03-22T13:58:15.530Z,41.97
2018-03-22T14:00:43.958Z,39.13
2018-03-22T14:03:12.261Z,39.53
2018-03-22T14:05:40.621Z,37.80
2018-03-22T14:08:09.119Z,41.27
2018-03-22T14:10:37.756Z,40.27
2018-03-22T14:13:06.840Z,37.60
2018-03-22T14:15:36.216Z,34.33
2018-03-22T14:18:04.523Z,33.60
2018-03-22T14:20:32.968Z,32.42
2018-03-22T14:23:01.330Z,34.67
2018-03-22T14:25:31.259Z,30.90
2018-03-22T14:27:59.585Z,29.87
2018-03-22T14:30:28.681Z,26.80
2018-03-22T14:32:57.850Z,28.43
2018-03-22T14:35:26.347Z,26.83
2018-03-22T14:37:55.437Z,26.97
2018-03-22T14:40:24.650Z,28.20
2018-03-22T14:42:53.776Z,29.37
2018-03-22T14:45:22.139Z,28.70
2018-03-22T14:47:50.514Z,29.60
2018-03-22T14:50:18.849Z,30.20
2018-03-22T14:52:47.285Z,31.07
2018-03-22T14:55:15.647Z,31.97
2018-03-22T14:57:45.027Z,30.12
2018-03-22T15:00:13.444Z,29.07
2018-03-22T15:02:41.786Z,28.40
2018-03-22T15:05:11.026Z,25.47
2018-03-22T15:07:39.509Z,24.33
2018-03-22T15:10:07.949Z,23.63
2018-03-22T15:12:37.119Z,23.48
2018-03-22T15:15:05.469Z,25.13
2018-03-22T15:17:34.046Z,23.67
2018-03-22T15:20:02.410Z,22.33
2018-03-22T15:22:30.814Z,24.83
2018-03-22T15:24:59.354Z,25.17
2018-03-22T15:27:28.604Z,25.87
2018-03-22T15:29:58.349Z,26.62
2018-03-22T15:32:27.470Z,28.63
2018-03-22T15:34:55.791Z,27.30
2018-03-22T15:37:24.164Z,29.07
2018-03-22T15:39:52.773Z,32.80
2018-03-22T15:42:21.374Z,31.87
2018-03-22T15:44:50.539Z,30.27
2018-03-22T15:47:18.911Z,30.17
2018-03-22T15:49:47.350Z,28.67
2018-03-22T15:52:15.729Z,29.75
2018-03-22T15:54:44.194Z,30.67
2018-03-22T15:57:13.863Z,30.83
2018-03-22T15:59:42.240Z,30.00
2018-03-22T16:02:12.109Z,33.38
2018-03-22T16:04:40.474Z,33.87
2018-03-22T16:07:08.804Z,33.00
2018-03-22T16:09:37.124Z,35.23
2018-03-22T16:12:06.384Z,34.17
2018-03-22T16:14:35.034Z,33.73
2018-03-22T16:17:03.561Z,33.27
2018-03-22T16:19:32.017Z,34.83
2018-03-22T16:22:00.381Z,32.75
2018-03-22T16:24:28.714Z,32.87
2018-03-22T16:26:57.197Z,31.87
2018-03-22T16:29:25.742Z,23.80
2018-03-22T16:31:54.232Z,21.40
2018-03-22T16:34:22.563Z,21.23
2018-03-22T16:36:51.000Z,20.03
2018-03-22T16:39:19.436Z,17.30
2018-03-22T16:41:48.301Z,16.80
2018-03-22T16:44:16.803Z,13.90
2018-03-22T16:46:45.465Z,12.88
2018-03-22T16:49:13.961Z,12.07
2018-03-22T16:51:42.281Z,12.73
2018-03-22T16:54:10.811Z,10.80
2018-03-22T16:56:39.216Z,12.47
2018-03-22T16:59:08.540Z,9.50
2018-03-22T17:01:36.969Z,11.47
2018-03-22T17:04:05.394Z,9.57
2018-03-22T17:06:34.528Z,10.15
2018-03-22T17:09:03.876Z,10.53
2018-03-22T17:11:32.256Z,9.20
2018-03-22T17:14:00.746Z,10.47
2018-03-22T17:16:29.234Z,10.13
2018-03-22T17:18:57.787Z,10.00
2018-03-22T17:21:26.096Z,9.80
2018-03-22T17:23:54.407Z,9.33
2018-03-22T17:26:23.597Z,9.10
2018-03-22T17:28:52.763Z,10.70
2018-03-22T17:31:21.133Z,11.33
2018-03-22T17:33:49.856Z,11.38
2018-03-22T17:36:19.192Z,10.53
2018-03-22T17:38:47.727Z,9.90
2018-03-22T17:41:16.262Z,9.93
2018-03-22T17:43:44.607Z,10.90
2018-03-22T17:46:14.861Z,9.33
2018-03-22T17:48:43.327Z,11.53
2018-03-22T17:51:11.667Z,12.63
2018-03-22T17:53:40.011Z,14.80
2018-03-22T17:56:08.354Z,13.00
2018-03-22T17:58:38.456Z,13.73
2018-03-22T18:01:08.094Z,12.50
2018-03-22T18:03:36.675Z,10.60
2018-03-22T18:06:05.187Z,12.40
2018-03-22T18:08:33.596Z,17.67
2018-03-22T18:11:02.147Z,18.27
2018-03-22T18:13:31.531Z,19.65
2018-03-22T18:16:00.070Z,23.17
2018-03-22T18:18:29.591Z,21.25
2018-03-22T18:20:58.007Z,20.48
2018-03-22T18:23:26.587Z,16.63
2018-03-22T18:25:54.946Z,16.77
2018-03-22T18:28:23.391Z,15.13
2018-03-22T18:30:51.761Z,13.67
2018-03-22T18:33:20.256Z,12.73
2018-03-22T18:35:48.763Z,11.87
2018-03-22T18:38:17.141Z,12.65
2018-03-22T18:40:45.607Z,11.90
2018-03-22T18:43:14.839Z,11.38
2018-03-22T18:45:43.727Z,10.70
2018-03-22T18:48:13.923Z,12.13
2018-03-22T18:50:42.254Z,10.07
2018-03-22T18:53:10.631Z,9.03
2018-03-22T18:55:39.067Z,9.50
2018-03-22T18:58:07.496Z,8.50
2018-03-22T19:00:36.086Z,8.43
2018-03-22T19:03:04.670Z,8.33
2018-03-22T19:05:33.076Z,7.80
2018-03-22T19:08:02.200Z,8.13
2018-03-22T19:10:30.811Z,8.02
2018-03-22T19:12:59.196Z,8.17
2018-03-22T19:15:27.661Z,7.10
2018-03-22T19:17:56.007Z,6.60
2018-03-22T19:20:24.349Z,7.17
2018-03-22T19:22:53.405Z,7.28
2018-03-22T19:25:22.111Z,7.10
2018-03-22T19:27:50.454Z,6.97
2018-03-22T19:30:19.043Z,7.27
2018-03-22T19:32:47.464Z,7.07
2018-03-22T19:35:15.849Z,7.67
2018-03-22T19:37:44.414Z,7.37
2018-03-22T19:40:12.857Z,8.07
2018-03-22T19:42:41.365Z,7.27
2018-03-22T19:45:09.813Z,7.95
2018-03-22T19:47:38.375Z,7.73
2018-03-22T19:50:07.803Z,7.67
2018-03-22T19:52:36.305Z,8.87
2018-03-22T19:55:05.181Z,8.70
2018-03-22T19:57:34.873Z,8.40
2018-03-22T20:00:03.707Z,8.53
2018-03-22T20:02:32.351Z,9.10
2018-03-22T20:05:00.929Z,8.57
2018-03-22T20:07:29.503Z,11.23
2018-03-22T20:09:58.849Z,16.93
2018-03-22T20:12:27.230Z,15.53
2018-03-22T20:14:55.659Z,17.63
2018-03-22T20:17:24.820Z,22.55
2018-03-22T20:19:53.591Z,22.60
2018-03-22T20:22:21.999Z,29.63
2018-03-22T20:24:50.367Z,30.53
2018-03-22T20:27:18.746Z,31.23
2018-03-22T20:29:47.138Z,31.73
2018-03-22T20:32:17.418Z,32.15
2018-03-22T20:34:45.942Z,37.37
2018-03-22T20:37:14.312Z,28.43
2018-03-22T20:39:42.673Z,34.53
2018-03-22T20:42:11.343Z,34.10
2018-03-22T20:44:39.814Z,32.83
2018-03-22T20:47:08.321Z,35.60
2018-03-22T20:49:36.685Z,33.20
2018-03-22T20:52:05.167Z,33.92
2018-03-22T20:54:33.545Z,33.53
2018-03-22T20:57:02.045Z,39.73
2018-03-22T20:59:30.586Z,40.53
2018-03-22T21:01:58.971Z,42.50
2018-03-22T21:04:27.316Z,40.50
2018-03-22T21:06:56.489Z,44.67
2018-03-22T21:09:25.075Z,42.17
2018-03-22T21:11:53.418Z,40.23
2018-03-22T21:14:21.808Z,49.47
2018-03-22T21:16:50.154Z,45.55
2018-03-22T21:19:18.657Z,45.13
2018-03-22T21:21:47.445Z,47.15
2018-03-22T21:24:15.862Z,47.07
2018-03-22T21:26:44.211Z,45.75
2018-03-22T21:29:12.532Z,46.93
2018-03-22T21:31:40.899Z,48.30
2018-03-22T21:34:09.369Z,45.93
2018-03-22T21:36:38.019Z,47.13
2018-03-22T21:39:06.709Z,44.50
2018-03-22T21:41:35.046Z,45.97
2018-03-22T21:44:16.233Z,47.35
2018-03-22T21:46:44.720Z,47.62
2018-03-22T21:49:13.854Z,50.87
2018-03-22T21:51:42.304Z,49.87
2018-03-22T21:54:10.754Z,48.90
2018-03-22T21:56:39.086Z,49.53
2018-03-22T21:59:07.561Z,50.47
2018-03-22T22:01:36.094Z,50.63
2018-03-22T22:04:04.601Z,53.07
2018-03-22T22:06:33.098Z,49.63
2018-03-22T22:09:01.687Z,49.70
2018-03-22T22:11:31.157Z,50.63
2018-03-22T22:14:00.210Z,48.33
2018-03-22T22:16:28.730Z,48.67
2018-03-22T22:18:57.023Z,49.17
2018-03-22T22:21:25.390Z,47.40
2018-03-22T22:23:54.621Z,51.67
2018-03-22T22:26:23.051Z,54.70
2018-03-22T22:28:51.553Z,50.85
2018-03-22T22:31:19.961Z,50.38
2018-03-22T22:33:48.315Z,51.07
2018-03-22T22:36:16.694Z,56.77
2018-03-22T22:38:45.216Z,52.17
2018-03-22T22:41:13.717Z,48.90
2018-03-22T22:43:42.067Z,49.42
2018-03-22T22:46:10.482Z,49.50
2018-03-22T22:48:38.860Z,51.20
2018-03-22T22:51:07.367Z,50.87
2018-03-22T22:53:36.554Z,52.58
2018-03-22T22:56:05.666Z,47.70
2018-03-22T22:58:33.992Z,46.90
2018-03-22T23:01:02.656Z,44.17
2018-03-22T23:03:30.959Z,42.70
2018-03-22T23:05:59.469Z,43.17
2018-03-22T23:08:28.548Z,46.03
2018-03-22T23:10:58.003Z,43.42
2018-03-22T23:13:28.023Z,39.10
2018-03-22T23:15:58.103Z,41.70
2018-03-22T23:18:26.551Z,39.77
2018-03-22T23:20:54.887Z,37.57
2018-03-22T23:23:23.259Z,38.27
2018-03-22T23:25:51.547Z,38.57
2018-03-22T23:28:20.171Z,35.88
2018-03-22T23:30:48.485Z,37.47
2018-03-22T23:33:16.991Z,38.43
2018-03-22T23:35:45.277Z,40.27
2018-03-22T23:38:13.617Z,40.37
2018-03-22T23:40:42.708Z,39.17
2018-03-22T23:43:11.762Z,41.00
2018-03-22T23:45:40.102Z,40.80
2018-03-22T23:48:08.488Z,44.10
2018-03-22T23:50:36.824Z,41.53
2018-03-22T23:53:05.107Z,42.22
2018-03-22T23:55:34.198Z,43.73
2018-03-22T23:58:03.315Z,42.87
